This is the latest recevied weather packets stored in our database for station/object HA2SKA-1. If no packets are shown the sender has not sent any weather packets the latest 10 day(s).
| Time | Temp. | Humidity | Pressure | Rain* | Wind** | Luminosity | Snow |
|---|---|---|---|---|---|---|---|
| 1788061807 | 19.44° C | 98% | 1018.9 hPa | - | - | - | - |
| 1788060907 | 20.56° C | 86% | 1019 hPa | - | - | - | - |
| 1788060007 | 19.44° C | 95% | 1019 hPa | - | - | - | - |
| 1788059107 | 18.89° C | 98% | 1019 hPa | - | - | - | - |
| 1788058207 | 18.89° C | 100% | 1019.1 hPa | - | - | - | - |
| 1788057307 | 19.44° C | 99% | 1019 hPa | - | - | - | - |
| 1788056407 | 20.56° C | 87% | 1019.1 hPa | - | - | - | - |
| 1788055519 | 18.89° C | 100% | 1019.1 hPa | - | - | - | - |
| 1788054607 | 19.44° C | 95% | 1019.1 hPa | - | - | - | - |
| 1788053707 | 21.11° C | 83% | 1019.1 hPa | - | - | - | - |
| 1788052807 | 18.89° C | 95% | 1018.9 hPa | - | - | - | - |
| 1788051906 | 19.44° C | 95% | 1018.9 hPa | - | - | - | - |
| 1788051006 | 18.33° C | 100% | 1018.9 hPa | - | - | - | - |
| 1788050106 | 20.56° C | 81% | 1018.9 hPa | - | - | - | - |
| 1788049206 | 20.56° C | 79% | 1018.7 hPa | - | - | - | - |
| 1788048306 | 20.56° C | 82% | 1019 hPa | - | - | - | - |
| 1788047406 | 20.56° C | 84% | 1018.9 hPa | - | - | - | - |
| 1788046506 | 21.67° C | 76% | 1018.9 hPa | - | - | - | - |
| 1788045606 | 21.11° C | 81% | 1018.9 hPa | - | - | - | - |
| 1788044706 | 20° C | 90% | 1018.8 hPa | - | - | - | - |
| 1788043806 | 20° C | 89% | 1018.9 hPa | - | - | - | - |
| 1788042905 | 20.56° C | 82% | 1018.9 hPa | - | - | - | - |
| 1788042005 | 20.56° C | 81% | 1018.8 hPa | - | - | - | - |
| 1788041105 | 21.11° C | 77% | 1018.7 hPa | - | - | - | - |
| 1788040205 | 22.22° C | 68% | 1018.7 hPa | - | - | - | - |
* Rain since midnight (hover to see other rain measurements)
** Current wind speed in m/s (hover to see current wind gust speed)